createdAt,value
2023-01-11T00:00:33.309Z,0.00
2023-01-11T00:01:33.288Z,0.00
2023-01-11T00:02:33.734Z,0.00
2023-01-11T00:03:33.224Z,0.00
2023-01-11T00:04:33.333Z,0.00
2023-01-11T00:05:33.234Z,0.00
2023-01-11T00:06:33.525Z,0.00
2023-01-11T00:07:33.232Z,0.00
2023-01-11T00:08:33.258Z,0.00
2023-01-11T00:09:33.253Z,0.00
2023-01-11T00:10:33.173Z,0.00
2023-01-11T00:11:33.271Z,0.00
2023-01-11T00:12:33.185Z,0.00
2023-01-11T00:13:33.106Z,0.00
2023-01-11T00:14:33.189Z,0.00
2023-01-11T00:15:33.127Z,0.00
2023-01-11T00:16:33.134Z,0.00
2023-01-11T00:17:33.113Z,0.00
2023-01-11T00:18:33.206Z,0.00
2023-01-11T00:19:33.129Z,0.00
2023-01-11T00:20:33.132Z,0.00
2023-01-11T00:21:33.029Z,0.00
2023-01-11T00:22:33.137Z,0.00
2023-01-11T00:23:33.026Z,0.00
2023-01-11T00:24:32.948Z,0.00
2023-01-11T00:25:33.152Z,0.00
2023-01-11T00:26:33.064Z,0.00
2023-01-11T00:27:32.868Z,0.00
2023-01-11T00:28:32.902Z,0.00
2023-01-11T00:29:32.915Z,0.00
2023-01-11T00:30:32.985Z,0.00
2023-01-11T00:31:32.946Z,0.00
2023-01-11T00:32:32.913Z,0.00
2023-01-11T00:33:32.829Z,0.00
2023-01-11T00:34:32.829Z,0.00
2023-01-11T00:35:32.914Z,0.00
2023-01-11T00:36:32.839Z,0.00
2023-01-11T00:37:32.773Z,0.00
2023-01-11T00:38:32.873Z,0.00
2023-01-11T00:39:32.762Z,0.00
2023-01-11T00:40:32.746Z,0.00
2023-01-11T00:41:32.773Z,0.00
2023-01-11T00:42:32.814Z,0.00
2023-01-11T00:43:32.775Z,0.00
2023-01-11T00:44:32.702Z,0.00
2023-01-11T00:45:32.797Z,0.00
2023-01-11T00:46:32.665Z,0.00
2023-01-11T00:47:32.596Z,0.00
2023-01-11T00:48:32.732Z,0.00
2023-01-11T00:49:32.842Z,0.00
2023-01-11T00:50:32.811Z,0.00
2023-01-11T00:51:32.547Z,0.00
2023-01-11T00:52:32.629Z,0.00
2023-01-11T00:53:32.636Z,0.00
2023-01-11T00:54:32.573Z,0.00
2023-01-11T00:55:32.679Z,0.00
2023-01-11T00:56:32.568Z,0.00
2023-01-11T00:57:32.482Z,0.00
2023-01-11T00:58:32.813Z,0.00
2023-01-11T00:59:32.508Z,0.00
2023-01-11T01:00:32.509Z,0.00
2023-01-11T01:01:32.510Z,0.00
2023-01-11T01:02:32.635Z,0.00
2023-01-11T01:03:32.504Z,0.00
2023-01-11T01:04:32.738Z,0.00
2023-01-11T01:05:32.436Z,0.00
2023-01-11T01:06:32.537Z,0.00
2023-01-11T01:07:32.338Z,0.00
2023-01-11T01:08:32.440Z,0.00
2023-01-11T01:09:32.749Z,0.00
2023-01-11T01:10:32.455Z,0.00
2023-01-11T01:11:32.366Z,0.00
2023-01-11T01:12:32.288Z,0.00
2023-01-11T01:13:32.293Z,0.00
2023-01-11T01:14:32.277Z,0.00
2023-01-11T01:15:32.364Z,0.00
2023-01-11T01:16:32.294Z,0.00
2023-01-11T01:17:32.212Z,0.00
2023-01-11T01:18:32.214Z,0.00
2023-01-11T01:19:32.241Z,0.00
2023-01-11T01:20:32.123Z,0.00
2023-01-11T01:21:32.324Z,0.00
2023-01-11T01:22:32.239Z,0.00
2023-01-11T01:23:32.147Z,0.00
2023-01-11T01:24:32.148Z,0.00
2023-01-11T01:25:32.200Z,0.00
2023-01-11T01:26:32.267Z,0.00
2023-01-11T01:27:32.100Z,0.00
2023-01-11T01:28:32.108Z,0.00
2023-01-11T01:29:32.079Z,0.00
2023-01-11T01:30:32.111Z,0.00
2023-01-11T01:31:32.133Z,0.00
2023-01-11T01:32:32.089Z,0.00
2023-01-11T01:33:32.004Z,0.00
2023-01-11T01:34:32.112Z,0.00
2023-01-11T01:35:32.021Z,0.00
2023-01-11T01:36:32.016Z,0.00
2023-01-11T01:37:31.939Z,0.00
2023-01-11T01:38:32.033Z,0.00
2023-01-11T01:39:33.230Z,0.00
2023-01-11T01:40:32.356Z,0.00
2023-01-11T01:41:31.892Z,0.00
2023-01-11T01:42:31.869Z,0.00
2023-01-11T01:43:31.980Z,0.00
2023-01-11T01:44:33.214Z,0.00
2023-01-11T01:45:32.611Z,0.00
2023-01-11T01:46:32.060Z,0.00
2023-01-11T01:47:32.224Z,0.00
2023-01-11T01:48:32.147Z,0.00
2023-01-11T01:49:33.249Z,0.00
2023-01-11T01:50:31.821Z,0.00
2023-01-11T01:51:31.955Z,0.00
2023-01-11T01:52:32.056Z,0.00
2023-01-11T01:53:31.831Z,0.00
2023-01-11T01:54:31.842Z,0.00
2023-01-11T01:55:31.755Z,0.00
2023-01-11T01:56:31.857Z,0.00
2023-01-11T01:57:31.783Z,0.00
2023-01-11T01:58:31.865Z,0.00
2023-01-11T01:59:31.693Z,0.00
2023-01-11T02:00:31.809Z,0.00
2023-01-11T02:01:31.646Z,0.00
2023-01-11T02:02:31.850Z,0.00
2023-01-11T02:03:31.706Z,0.00
2023-01-11T02:04:31.630Z,0.00
2023-01-11T02:05:31.709Z,0.00
2023-01-11T02:06:31.656Z,0.00
2023-01-11T02:07:31.646Z,0.00
2023-01-11T02:08:31.758Z,0.00
2023-01-11T02:09:31.867Z,0.00
2023-01-11T02:10:31.656Z,0.00
2023-01-11T02:11:31.614Z,0.00
2023-01-11T02:12:31.665Z,0.00
2023-01-11T02:13:31.990Z,0.00
2023-01-11T02:14:31.577Z,0.00
2023-01-11T02:15:31.602Z,0.00
2023-01-11T02:16:31.616Z,0.00
2023-01-11T02:17:31.734Z,0.00
2023-01-11T02:18:31.505Z,0.00
2023-01-11T02:19:31.512Z,0.00
2023-01-11T02:20:31.415Z,0.00
2023-01-11T02:21:31.561Z,0.00
2023-01-11T02:22:31.445Z,0.00
2023-01-11T02:23:31.651Z,0.00
2023-01-11T02:24:31.465Z,0.00
2023-01-11T02:25:31.439Z,0.00
2023-01-11T02:26:31.476Z,0.00
2023-01-11T02:27:31.493Z,0.00
2023-01-11T02:28:38.245Z,0.00
2023-01-11T02:29:31.306Z,0.00
2023-01-11T02:30:31.412Z,0.00
2023-01-11T02:31:31.443Z,0.00
2023-01-11T02:32:31.403Z,0.00
2023-01-11T02:33:31.303Z,0.00
2023-01-11T02:34:31.444Z,0.00
2023-01-11T02:35:31.273Z,0.00
2023-01-11T02:36:31.163Z,0.00
2023-01-11T02:37:31.232Z,0.00
2023-01-11T02:38:31.147Z,0.00
2023-01-11T02:39:31.234Z,0.00
2023-01-11T02:40:31.153Z,0.00
2023-01-11T02:41:31.272Z,0.00
2023-01-11T02:42:31.173Z,0.00
2023-01-11T02:43:31.166Z,0.00
2023-01-11T02:44:31.214Z,0.00
2023-01-11T02:45:31.236Z,0.00
2023-01-11T02:46:31.297Z,0.00
2023-01-11T02:47:31.124Z,0.00
2023-01-11T02:48:31.141Z,0.00
2023-01-11T02:49:30.925Z,0.00
2023-01-11T02:50:31.021Z,0.00
2023-01-11T02:51:31.123Z,0.00
2023-01-11T02:52:31.045Z,0.00
2023-01-11T02:53:30.867Z,0.00
2023-01-11T02:54:30.957Z,0.00
2023-01-11T02:55:31.063Z,0.00
2023-01-11T02:56:30.961Z,0.00
2023-01-11T02:57:30.966Z,0.00
2023-01-11T02:58:30.956Z,0.00
2023-01-11T02:59:30.966Z,0.00
2023-01-11T03:00:30.917Z,0.00
2023-01-11T03:01:30.983Z,0.00
2023-01-11T03:02:30.950Z,0.00
2023-01-11T03:03:31.648Z,0.00
2023-01-11T03:04:30.926Z,0.00
2023-01-11T03:05:30.950Z,0.00
2023-01-11T03:06:31.288Z,0.00
2023-01-11T03:07:30.922Z,0.00
2023-01-11T03:08:30.827Z,0.00
2023-01-11T03:09:30.756Z,0.00
2023-01-11T03:10:30.868Z,0.00
2023-01-11T03:11:30.960Z,0.00
2023-01-11T03:12:30.771Z,0.00
2023-01-11T03:13:30.764Z,0.00
2023-01-11T03:14:30.771Z,0.00
2023-01-11T03:15:30.690Z,0.00
2023-01-11T03:16:30.923Z,0.00
2023-01-11T03:17:30.919Z,0.00
2023-01-11T03:18:30.530Z,0.00
2023-01-11T03:19:30.542Z,0.00
2023-01-11T03:20:30.526Z,0.00
2023-01-11T03:21:30.647Z,0.00
2023-01-11T03:22:30.642Z,0.00
2023-01-11T03:23:30.660Z,0.00
2023-01-11T03:24:30.547Z,0.00
2023-01-11T03:25:30.953Z,0.00
2023-01-11T03:26:30.758Z,0.00
2023-01-11T03:27:30.572Z,0.00
2023-01-11T03:28:30.504Z,0.00
2023-01-11T03:29:30.569Z,0.00
2023-01-11T03:30:30.482Z,0.00
2023-01-11T03:31:30.786Z,0.00
2023-01-11T03:32:30.433Z,0.00
2023-01-11T03:33:30.498Z,0.00
2023-01-11T03:34:30.420Z,0.00
2023-01-11T03:35:31.552Z,0.00
2023-01-11T03:36:30.417Z,0.00
2023-01-11T03:37:30.443Z,0.00
2023-01-11T03:38:30.467Z,0.00
2023-01-11T03:39:30.364Z,0.00
2023-01-11T03:40:30.379Z,0.00
2023-01-11T03:41:30.465Z,0.00
2023-01-11T03:42:30.752Z,0.00
2023-01-11T03:43:30.485Z,0.00
2023-01-11T03:44:34.747Z,0.00
2023-01-11T03:45:31.408Z,0.00
2023-01-11T03:46:30.943Z,0.00
2023-01-11T03:47:30.627Z,0.00
2023-01-11T03:48:30.307Z,0.00
2023-01-11T03:49:30.421Z,0.00
2023-01-11T03:50:30.542Z,0.00
2023-01-11T03:51:30.250Z,0.00
2023-01-11T03:52:30.153Z,0.00
2023-01-11T03:53:30.157Z,0.00
2023-01-11T03:54:30.141Z,0.00
2023-01-11T03:55:30.055Z,0.00
2023-01-11T03:56:30.044Z,0.00
2023-01-11T03:57:30.158Z,0.00
2023-01-11T03:58:30.076Z,0.00
2023-01-11T03:59:30.481Z,0.00
2023-01-11T04:00:30.107Z,0.00
2023-01-11T04:01:30.093Z,0.00
2023-01-11T04:02:30.033Z,0.00
2023-01-11T04:03:30.017Z,0.00
2023-01-11T04:04:30.462Z,0.00
2023-01-11T04:05:30.046Z,0.00
2023-01-11T04:06:29.973Z,0.00
2023-01-11T04:07:30.141Z,0.00
2023-01-11T04:08:29.925Z,0.00
2023-01-11T04:09:30.043Z,0.00
2023-01-11T04:10:30.131Z,0.00
2023-01-11T04:11:29.889Z,0.00
2023-01-11T04:12:29.964Z,0.00
2023-01-11T04:13:29.968Z,0.00
2023-01-11T04:14:29.879Z,0.00
2023-01-11T04:15:29.902Z,0.00
2023-01-11T04:16:29.961Z,0.00
2023-01-11T04:17:29.810Z,0.00
2023-01-11T04:18:29.713Z,0.00
2023-01-11T04:19:29.805Z,0.00
2023-01-11T04:20:29.842Z,0.00
2023-01-11T04:21:29.736Z,0.00
2023-01-11T04:22:29.645Z,0.00
2023-01-11T04:23:29.662Z,0.00
2023-01-11T04:24:29.628Z,0.00
2023-01-11T04:25:29.771Z,0.00
2023-01-11T04:26:29.767Z,0.00
2023-01-11T04:27:29.758Z,0.00
2023-01-11T04:28:29.767Z,0.00
2023-01-11T04:29:29.675Z,0.00
2023-01-11T04:30:29.602Z,0.00
2023-01-11T04:31:29.541Z,0.00
2023-01-11T04:32:29.598Z,0.00
2023-01-11T04:33:30.515Z,0.00
2023-01-11T04:34:29.602Z,0.00
2023-01-11T04:35:29.631Z,0.00
2023-01-11T04:36:29.655Z,0.00
2023-01-11T04:37:30.645Z,0.00
2023-01-11T04:38:29.736Z,0.00
2023-01-11T04:39:29.546Z,0.00
2023-01-11T04:40:29.548Z,0.00
2023-01-11T04:41:29.558Z,0.00
2023-01-11T04:42:29.572Z,0.00
2023-01-11T04:43:29.567Z,0.00
2023-01-11T04:44:29.587Z,0.00
2023-01-11T04:45:29.563Z,0.00
2023-01-11T04:46:29.491Z,0.00
2023-01-11T04:47:29.484Z,0.00
2023-01-11T04:48:29.492Z,0.00
2023-01-11T04:49:29.441Z,0.00
2023-01-11T04:50:29.477Z,0.00
2023-01-11T04:51:29.448Z,0.00
2023-01-11T04:52:29.431Z,0.00
2023-01-11T04:53:29.451Z,0.00
2023-01-11T04:54:29.474Z,0.00
2023-01-11T04:55:29.260Z,0.00
2023-01-11T04:56:29.483Z,0.00
2023-01-11T04:57:29.359Z,0.00
2023-01-11T04:58:29.382Z,0.00
2023-01-11T04:59:29.279Z,0.00
2023-01-11T05:00:29.294Z,0.00
2023-01-11T05:01:29.410Z,0.00
2023-01-11T05:02:29.304Z,0.00
2023-01-11T05:03:29.194Z,0.00
2023-01-11T05:04:29.307Z,0.00
2023-01-11T05:05:29.210Z,0.00
2023-01-11T05:06:29.303Z,0.00
2023-01-11T05:07:29.229Z,0.00
2023-01-11T05:08:29.244Z,0.00
2023-01-11T05:09:29.292Z,0.00
2023-01-11T05:10:29.141Z,0.00
2023-01-11T05:11:29.158Z,0.00
2023-01-11T05:12:29.062Z,0.00
2023-01-11T05:13:29.068Z,0.00
2023-01-11T05:14:29.091Z,0.00
2023-01-11T05:15:28.998Z,0.00
2023-01-11T05:16:29.138Z,0.00
2023-01-11T05:17:29.095Z,0.00
2023-01-11T05:18:28.990Z,0.00
2023-01-11T05:19:29.317Z,0.00
2023-01-11T05:20:29.016Z,0.00
2023-01-11T05:21:29.010Z,0.00
2023-01-11T05:22:29.138Z,0.00
2023-01-11T05:23:28.848Z,0.00
2023-01-11T05:24:56.373Z,0.00
2023-01-11T05:25:28.973Z,0.00
2023-01-11T05:26:28.961Z,0.00
2023-01-11T05:27:29.067Z,0.00
2023-01-11T05:28:29.267Z,0.00
2023-01-11T05:29:28.982Z,0.00
2023-01-11T05:30:28.883Z,0.00
2023-01-11T05:31:28.919Z,0.00
2023-01-11T05:32:28.887Z,0.00
2023-01-11T05:33:28.832Z,0.00
2023-01-11T05:34:28.803Z,0.00
2023-01-11T05:35:28.920Z,0.00
2023-01-11T05:36:28.736Z,0.00
2023-01-11T05:37:28.927Z,0.00
2023-01-11T05:38:28.730Z,0.00
2023-01-11T05:39:29.145Z,0.00
2023-01-11T05:40:28.959Z,0.00
2023-01-11T05:41:28.760Z,0.00
2023-01-11T05:42:28.855Z,0.00
2023-01-11T05:43:28.667Z,0.00
2023-01-11T05:44:28.990Z,0.00
2023-01-11T05:45:28.777Z,0.00
2023-01-11T05:46:28.500Z,0.00
2023-01-11T05:47:28.703Z,0.00
2023-01-11T05:48:28.629Z,0.00
2023-01-11T05:49:28.520Z,0.00
2023-01-11T05:50:28.618Z,0.00
2023-01-11T05:51:28.523Z,0.00
2023-01-11T05:52:28.431Z,0.00
2023-01-11T05:53:28.541Z,0.00
2023-01-11T05:54:28.434Z,0.00
2023-01-11T05:55:28.553Z,0.00
2023-01-11T05:56:28.369Z,0.00
2023-01-11T05:57:28.453Z,0.00
2023-01-11T05:58:28.394Z,0.00
2023-01-11T05:59:31.096Z,0.00
2023-01-11T06:00:28.380Z,0.00
2023-01-11T06:01:28.287Z,0.00
2023-01-11T06:02:28.482Z,0.00
2023-01-11T06:03:28.417Z,0.00
2023-01-11T06:04:28.286Z,0.00
2023-01-11T06:05:28.315Z,0.00
2023-01-11T06:06:28.394Z,0.00
2023-01-11T06:07:28.222Z,0.00
2023-01-11T06:08:28.318Z,0.00
2023-01-11T06:09:28.272Z,0.00
2023-01-11T06:10:28.352Z,0.00
2023-01-11T06:11:28.189Z,0.00
2023-01-11T06:12:28.163Z,0.00
2023-01-11T06:13:28.489Z,0.00
2023-01-11T06:14:28.195Z,0.00
2023-01-11T06:15:28.168Z,0.00
2023-01-11T06:16:28.286Z,0.00
2023-01-11T06:18:39.305Z,0.00
2023-01-11T06:19:39.278Z,0.00
2023-01-11T06:20:39.279Z,0.00
2023-01-11T06:21:39.266Z,0.00
2023-01-11T06:22:39.219Z,0.00
2023-01-11T06:23:39.204Z,0.00
2023-01-11T06:24:39.307Z,0.00
2023-01-11T06:25:39.240Z,0.00
2023-01-11T06:26:39.502Z,0.00
2023-01-11T06:27:39.127Z,0.00
2023-01-11T06:28:39.126Z,0.00
2023-01-11T06:29:39.146Z,0.00
2023-01-11T06:30:39.334Z,0.00
2023-01-11T06:31:39.048Z,0.00
2023-01-11T06:32:39.087Z,0.00
2023-01-11T06:33:39.069Z,0.00
2023-01-11T06:34:39.069Z,0.00
2023-01-11T06:35:38.975Z,0.00
2023-01-11T06:36:38.999Z,0.00
2023-01-11T06:37:39.109Z,0.00
2023-01-11T06:38:39.112Z,0.00
2023-01-11T06:39:39.192Z,0.00
2023-01-11T06:40:39.140Z,0.00
2023-01-11T06:41:39.104Z,0.00
2023-01-11T06:42:39.017Z,0.00
2023-01-11T06:43:38.960Z,0.00
2023-01-11T06:44:39.014Z,0.00
2023-01-11T06:45:38.919Z,0.00
2023-01-11T06:46:39.041Z,0.00
2023-01-11T06:47:39.042Z,0.00
2023-01-11T06:48:38.955Z,0.00
2023-01-11T06:49:38.874Z,0.00
2023-01-11T06:50:38.874Z,0.00
2023-01-11T06:51:38.826Z,0.00
2023-01-11T06:52:38.792Z,0.00
2023-01-11T06:53:38.843Z,0.00
2023-01-11T06:54:38.823Z,0.00
2023-01-11T06:55:38.810Z,0.00
2023-01-11T06:56:38.834Z,0.00
2023-01-11T06:57:38.924Z,0.00
2023-01-11T06:58:38.846Z,0.00
2023-01-11T06:59:39.767Z,0.00
2023-01-11T07:00:39.050Z,0.00
2023-01-11T07:01:38.691Z,0.00
2023-01-11T07:02:38.752Z,0.00
2023-01-11T07:03:38.759Z,0.00
2023-01-11T07:04:38.572Z,0.00
2023-01-11T07:05:38.655Z,0.00
2023-01-11T07:06:38.680Z,0.00
2023-01-11T07:07:38.586Z,0.00
2023-01-11T07:08:38.622Z,0.00
2023-01-11T07:09:39.419Z,0.00
2023-01-11T07:10:38.514Z,0.00
2023-01-11T07:11:38.610Z,0.00
2023-01-11T07:12:38.603Z,0.00
2023-01-11T07:13:38.441Z,0.00
2023-01-11T07:14:38.621Z,0.00
2023-01-11T07:15:38.569Z,0.00
2023-01-11T07:16:38.445Z,0.00
2023-01-11T07:17:38.564Z,0.00
2023-01-11T07:18:38.450Z,0.00
2023-01-11T07:19:38.380Z,0.00
2023-01-11T07:20:38.558Z,0.00
2023-01-11T07:21:38.406Z,0.00
2023-01-11T07:22:38.499Z,0.00
2023-01-11T07:23:38.407Z,0.00
2023-01-11T07:24:38.392Z,0.00
2023-01-11T07:25:38.403Z,0.00
2023-01-11T07:26:38.815Z,0.00
2023-01-11T07:27:38.339Z,0.00
2023-01-11T07:28:38.412Z,0.00
2023-01-11T07:29:38.350Z,0.00
2023-01-11T07:30:55.514Z,0.00
2023-01-11T07:31:39.626Z,0.00
2023-01-11T07:32:38.347Z,0.00
2023-01-11T07:33:38.160Z,0.00
2023-01-11T07:34:38.193Z,0.00
2023-01-11T07:35:38.446Z,0.00
2023-01-11T07:36:38.381Z,5.62
2023-01-11T07:37:38.195Z,5.62
2023-01-11T07:38:38.199Z,5.62
2023-01-11T07:39:43.923Z,5.62
2023-01-11T07:40:39.132Z,5.62
2023-01-11T07:41:39.246Z,5.62
2023-01-11T07:42:38.218Z,5.62
2023-01-11T07:43:38.225Z,5.62
2023-01-11T07:44:38.163Z,5.62
2023-01-11T07:45:45.287Z,5.62
2023-01-11T07:46:39.141Z,5.62
2023-01-11T07:47:38.047Z,5.62
2023-01-11T07:48:37.953Z,11.25
2023-01-11T07:49:38.074Z,11.25
2023-01-11T07:50:38.275Z,11.25
2023-01-11T07:51:37.997Z,11.25
2023-01-11T07:52:37.994Z,11.25
2023-01-11T07:53:37.887Z,16.88
2023-01-11T07:54:37.925Z,16.88
2023-01-11T07:55:38.023Z,22.50
2023-01-11T07:56:37.914Z,22.50
2023-01-11T07:57:37.943Z,22.50
2023-01-11T07:58:37.815Z,22.50
2023-01-11T07:59:37.923Z,22.50
2023-01-11T08:00:37.842Z,16.88
2023-01-11T08:01:37.841Z,16.88
2023-01-11T08:02:37.941Z,16.88
2023-01-11T08:03:38.027Z,22.50
2023-01-11T08:04:37.861Z,22.50
2023-01-11T08:05:38.084Z,28.12
2023-01-11T08:06:37.748Z,28.12
2023-01-11T08:07:37.755Z,28.12
2023-01-11T08:08:37.746Z,33.75
2023-01-11T08:09:37.697Z,28.12
2023-01-11T08:10:39.183Z,33.75
2023-01-11T08:11:37.801Z,33.75
2023-01-11T08:12:37.698Z,33.75
2023-01-11T08:13:37.620Z,39.38
2023-01-11T08:14:37.634Z,39.38
2023-01-11T08:15:37.638Z,39.38
2023-01-11T08:16:37.658Z,39.38
2023-01-11T08:17:37.745Z,39.38
2023-01-11T08:18:37.552Z,39.38
2023-01-11T08:19:37.572Z,39.38
2023-01-11T08:20:37.759Z,39.38
2023-01-11T08:21:37.580Z,45.00
2023-01-11T08:22:38.487Z,50.62
2023-01-11T08:23:37.695Z,45.00
2023-01-11T08:24:37.828Z,39.38
2023-01-11T08:25:37.713Z,39.38
2023-01-11T08:26:39.477Z,50.62
2023-01-11T08:27:40.604Z,45.00
2023-01-11T08:28:39.671Z,45.00
2023-01-11T08:29:37.640Z,45.00
2023-01-11T08:30:37.543Z,56.25
2023-01-11T08:31:38.152Z,56.25
2023-01-11T08:32:37.744Z,50.62
2023-01-11T08:33:38.079Z,39.38
2023-01-11T08:34:37.492Z,39.38
2023-01-11T08:35:37.693Z,50.62
2023-01-11T08:36:37.685Z,56.25
2023-01-11T08:37:37.575Z,56.25
2023-01-11T08:38:37.499Z,56.25
2023-01-11T08:39:38.000Z,56.25
2023-01-11T08:40:38.349Z,61.88
2023-01-11T08:41:37.535Z,67.50
2023-01-11T08:42:37.770Z,78.75
2023-01-11T08:43:37.445Z,90.00
2023-01-11T08:44:37.368Z,78.75
2023-01-11T08:45:38.576Z,78.75
2023-01-11T08:46:37.507Z,78.75
2023-01-11T08:47:37.455Z,73.12
2023-01-11T08:48:37.370Z,73.12
2023-01-11T08:49:38.427Z,84.38
2023-01-11T08:50:37.600Z,101.25
2023-01-11T08:51:37.607Z,84.38
2023-01-11T08:52:37.201Z,73.12
2023-01-11T08:53:37.427Z,73.12
2023-01-11T08:54:37.128Z,84.38
2023-01-11T08:55:37.221Z,101.25
2023-01-11T08:56:37.282Z,106.88
2023-01-11T08:57:37.234Z,135.00
2023-01-11T08:58:37.122Z,146.25
2023-01-11T08:59:37.534Z,140.62
2023-01-11T09:00:37.151Z,146.25
2023-01-11T09:01:37.078Z,146.25
2023-01-11T09:02:38.468Z,146.25
2023-01-11T09:03:37.388Z,163.12
2023-01-11T09:04:39.439Z,213.75
2023-01-11T09:05:37.072Z,208.12
2023-01-11T09:06:37.987Z,208.12
2023-01-11T09:07:38.330Z,208.12
2023-01-11T09:08:37.407Z,185.62
2023-01-11T09:09:37.880Z,185.62
2023-01-11T09:10:37.125Z,191.25
2023-01-11T09:11:37.112Z,196.88
2023-01-11T09:12:37.050Z,196.88
2023-01-11T09:13:37.133Z,191.25
2023-01-11T09:14:37.059Z,191.25
2023-01-11T09:15:36.949Z,180.00
2023-01-11T09:16:36.966Z,168.75
2023-01-11T09:17:38.935Z,163.12
2023-01-11T09:18:37.092Z,157.50
2023-01-11T09:19:36.863Z,168.75
2023-01-11T09:20:36.806Z,185.62
2023-01-11T09:21:36.777Z,202.50
2023-01-11T09:22:37.783Z,213.75
2023-01-11T09:23:36.777Z,236.25
2023-01-11T09:24:37.233Z,253.12
2023-01-11T09:25:36.932Z,264.38
2023-01-11T09:26:36.818Z,253.12
2023-01-11T09:27:36.937Z,225.00
2023-01-11T09:28:36.758Z,208.12
2023-01-11T09:29:37.545Z,202.50
2023-01-11T09:30:37.340Z,208.12
2023-01-11T09:31:36.836Z,208.12
2023-01-11T09:32:36.819Z,202.50
2023-01-11T09:33:36.663Z,202.50
2023-01-11T09:34:36.769Z,208.12
2023-01-11T09:35:36.672Z,208.12
2023-01-11T09:36:36.697Z,202.50
2023-01-11T09:37:36.685Z,191.25
2023-01-11T09:38:36.696Z,191.25
2023-01-11T09:39:36.833Z,191.25
2023-01-11T09:40:36.778Z,191.25
2023-01-11T09:41:36.540Z,191.25
2023-01-11T09:42:36.555Z,196.88
2023-01-11T09:43:36.634Z,213.75
2023-01-11T09:44:36.633Z,219.38
2023-01-11T09:45:36.745Z,213.75
2023-01-11T09:46:36.463Z,208.12
2023-01-11T09:47:36.545Z,213.75
2023-01-11T09:48:36.476Z,213.75
2023-01-11T09:49:36.482Z,225.00
2023-01-11T09:50:36.579Z,230.62
2023-01-11T09:51:36.503Z,230.62
2023-01-11T09:52:36.481Z,225.00
2023-01-11T09:53:36.500Z,219.38
2023-01-11T09:54:36.311Z,225.00
2023-01-11T09:55:39.201Z,219.38
2023-01-11T09:56:37.760Z,208.12
2023-01-11T09:57:36.461Z,196.88
2023-01-11T09:58:36.524Z,174.38
2023-01-11T09:59:36.448Z,157.50
2023-01-11T10:00:36.811Z,151.88
2023-01-11T10:01:36.563Z,157.50
2023-01-11T10:02:36.375Z,180.00
2023-01-11T10:03:36.458Z,213.75
2023-01-11T10:04:36.404Z,241.88
2023-01-11T10:05:36.307Z,264.38
2023-01-11T10:06:36.288Z,264.38
2023-01-11T10:07:36.296Z,247.50
2023-01-11T10:18:26.726Z,208.12
2023-01-11T10:18:30.650Z,196.88
2023-01-11T10:18:37.059Z,202.50
2023-01-11T10:18:43.313Z,202.50
2023-01-11T10:19:10.403Z,191.25
2023-01-11T10:19:40.614Z,191.25
2023-01-11T10:20:36.133Z,196.88
2023-01-11T10:21:36.300Z,196.88
2023-01-11T10:22:36.095Z,185.62
2023-01-11T10:23:35.983Z,174.38
2023-01-11T10:24:35.964Z,174.38
2023-01-11T10:25:35.901Z,168.75
2023-01-11T10:26:36.052Z,174.38
2023-01-11T10:27:35.905Z,185.62
2023-01-11T10:28:35.935Z,191.25
2023-01-11T10:29:36.449Z,185.62
2023-01-11T10:30:35.917Z,174.38
2023-01-11T10:31:36.209Z,157.50
2023-01-11T10:32:35.833Z,151.88
2023-01-11T10:33:35.766Z,157.50
2023-01-11T10:34:35.906Z,174.38
2023-01-11T10:35:35.771Z,191.25
2023-01-11T10:36:35.683Z,202.50
2023-01-11T10:37:35.702Z,219.38
2023-01-11T10:38:35.779Z,230.62
2023-01-11T10:39:35.888Z,230.62
2023-01-11T10:40:35.728Z,230.62
2023-01-11T10:41:35.692Z,236.25
2023-01-11T10:42:35.807Z,236.25
2023-01-11T10:43:35.625Z,241.88
2023-01-11T10:44:35.813Z,241.88
2023-01-11T10:45:35.807Z,241.88
2023-01-11T10:46:35.538Z,241.88
2023-01-11T10:47:35.755Z,241.88
2023-01-11T10:48:35.657Z,230.62
2023-01-11T10:49:36.282Z,225.00
2023-01-11T10:50:35.664Z,230.62
2023-01-11T10:51:35.578Z,236.25
2023-01-11T10:52:35.880Z,236.25
2023-01-11T10:53:35.617Z,241.88
2023-01-11T10:54:35.579Z,253.12
2023-01-11T10:55:36.591Z,253.12
2023-01-11T10:56:35.721Z,236.25
2023-01-11T10:57:36.637Z,225.00
2023-01-11T10:58:35.541Z,208.12
2023-01-11T10:59:35.569Z,180.00
2023-01-11T11:00:35.683Z,163.12
2023-01-11T11:01:35.771Z,151.88
2023-01-11T11:02:36.585Z,140.62
2023-01-11T11:03:35.490Z,118.12
2023-01-11T11:04:35.369Z,101.25
2023-01-11T11:05:35.398Z,101.25
2023-01-11T11:06:35.398Z,101.25
2023-01-11T11:07:35.807Z,112.50
2023-01-11T11:08:35.202Z,123.75
2023-01-11T11:09:35.293Z,146.25
2023-01-11T11:10:35.205Z,151.88
2023-01-11T11:11:35.215Z,146.25
2023-01-11T11:12:35.211Z,140.62
2023-01-11T11:13:35.125Z,140.62
2023-01-11T11:14:35.257Z,151.88
2023-01-11T11:15:35.253Z,135.00
2023-01-11T11:16:35.184Z,112.50
2023-01-11T11:17:35.358Z,101.25
2023-01-11T11:18:35.374Z,106.88
2023-01-11T11:19:35.281Z,106.88
2023-01-11T11:20:35.386Z,112.50
2023-01-11T11:21:35.418Z,118.12
2023-01-11T11:22:35.282Z,140.62
2023-01-11T11:23:35.105Z,168.75
2023-01-11T11:24:35.105Z,191.25
2023-01-11T11:25:35.009Z,191.25
2023-01-11T11:26:35.171Z,174.38
2023-01-11T11:27:34.910Z,157.50
2023-01-11T11:28:35.035Z,146.25
2023-01-11T11:29:35.560Z,129.38
2023-01-11T11:30:34.957Z,123.75
2023-01-11T11:31:35.179Z,151.88
2023-01-11T11:32:36.631Z,202.50
2023-01-11T11:33:34.853Z,241.88
2023-01-11T11:34:34.881Z,264.38
2023-01-11T11:35:35.179Z,264.38
2023-01-11T11:36:34.978Z,247.50
2023-01-11T11:37:34.881Z,230.62
2023-01-11T11:38:34.909Z,236.25
2023-01-11T11:39:34.930Z,247.50
2023-01-11T11:40:34.898Z,247.50
2023-01-11T11:41:34.913Z,241.88
2023-01-11T11:42:34.737Z,241.88
2023-01-11T11:43:34.724Z,225.00
2023-01-11T11:44:34.819Z,225.00
2023-01-11T11:45:34.771Z,225.00
2023-01-11T11:46:35.890Z,230.62
2023-01-11T11:47:34.748Z,241.88
2023-01-11T11:48:34.783Z,253.12
2023-01-11T11:49:34.753Z,264.38
2023-01-11T11:50:44.922Z,241.88
2023-01-11T11:51:35.677Z,219.38
2023-01-11T11:52:34.585Z,230.62
2023-01-11T11:53:34.715Z,258.75
2023-01-11T11:54:34.703Z,275.62
2023-01-11T11:55:34.680Z,292.50
2023-01-11T11:56:34.587Z,315.00
2023-01-11T11:57:34.628Z,320.62
2023-01-11T11:58:34.515Z,309.38
2023-01-11T11:59:34.728Z,270.00
2023-01-11T12:00:34.531Z,219.38
2023-01-11T12:01:34.449Z,180.00
2023-01-11T12:02:34.592Z,168.75
2023-01-11T12:03:34.562Z,168.75
2023-01-11T12:04:35.069Z,157.50
2023-01-11T12:05:34.368Z,163.12
2023-01-11T12:06:34.454Z,174.38
2023-01-11T12:07:38.058Z,174.38
2023-01-11T12:08:35.443Z,174.38
2023-01-11T12:09:34.665Z,163.12
2023-01-11T12:10:34.398Z,151.88
2023-01-11T12:11:34.388Z,157.50
2023-01-11T12:12:34.408Z,151.88
2023-01-11T12:13:34.457Z,146.25
2023-01-11T12:14:34.419Z,146.25
2023-01-11T12:15:34.372Z,157.50
2023-01-11T12:16:34.360Z,151.88
2023-01-11T12:17:34.512Z,151.88
2023-01-11T12:18:34.465Z,163.12
2023-01-11T12:19:34.429Z,180.00
2023-01-11T12:20:34.378Z,185.62
2023-01-11T12:21:34.261Z,191.25
2023-01-11T12:22:34.177Z,191.25
2023-01-11T12:23:34.209Z,185.62
2023-01-11T12:24:34.270Z,180.00
2023-01-11T12:25:34.301Z,174.38
2023-01-11T12:26:34.097Z,168.75
2023-01-11T12:27:34.214Z,168.75
2023-01-11T12:28:35.980Z,168.75
2023-01-11T12:29:34.418Z,174.38
2023-01-11T12:30:34.412Z,174.38
2023-01-11T12:31:34.134Z,163.12
2023-01-11T12:32:34.460Z,157.50
2023-01-11T12:33:34.140Z,151.88
2023-01-11T12:34:34.055Z,146.25
2023-01-11T12:35:33.972Z,151.88
2023-01-11T12:36:34.391Z,146.25
2023-01-11T12:37:34.077Z,146.25
2023-01-11T12:38:34.092Z,157.50
2023-01-11T12:39:34.003Z,168.75
2023-01-11T12:40:33.986Z,174.38
2023-01-11T12:41:34.028Z,180.00
2023-01-11T12:42:33.993Z,196.88
2023-01-11T12:43:34.024Z,219.38
2023-01-11T12:44:33.911Z,236.25
2023-01-11T12:45:33.842Z,236.25
2023-01-11T12:46:33.842Z,236.25
2023-01-11T12:47:34.133Z,230.62
2023-01-11T12:48:33.841Z,236.25
2023-01-11T12:49:33.874Z,236.25
2023-01-11T12:50:33.845Z,241.88
2023-01-11T12:51:33.880Z,241.88
2023-01-11T12:52:33.782Z,241.88
2023-01-11T12:53:33.962Z,236.25
2023-01-11T12:54:33.892Z,230.62
2023-01-11T12:55:33.797Z,225.00
2023-01-11T12:56:34.715Z,213.75
2023-01-11T12:57:33.703Z,202.50
2023-01-11T12:58:33.804Z,185.62
2023-01-11T12:59:33.648Z,174.38
2023-01-11T13:00:33.623Z,174.38
2023-01-11T13:01:33.789Z,196.88
2023-01-11T13:02:34.112Z,213.75
2023-01-11T13:03:33.648Z,213.75
2023-01-11T13:04:33.570Z,213.75
2023-01-11T13:05:33.756Z,219.38
2023-01-11T13:06:33.652Z,225.00